HESN

Aswan International Airport

Aswan, Egypt
METAR HESN 192000Z 01012KT CAVOK 35/07 Q1009 NOSIG
Observed Flight Rules
Jun-19 @ 20:00 UTC (21 minutes ago) Visual Flight Rules
Wind Visibility Clouds
10° at 12 knots 10,000+ meters
  • Clear skies
Temperatures Readings
Current 35°C / 95°F
Dewpoint 7°C / 45°F
Humidity 18%
Altimeter 29.79" Hg
Pressure 1009 hPa
Elevation 194
METAR HESN 192000Z 01012KT CAVOK 35/07 Q1009 NOSIG
Observed Flight Rules
Jun-19 @ 20:00 UTC
(21 minutes ago)
VFR
Wind Visibility
10° at 12 knots 10,000+ meters
Clouds
  • Clear skies
Temperature Dewpoint
35°C / 95°F 7°C / 45°F
Humidity Altimeter Pressure
18% 29.79" Hg 1009 hPa